createdAt,value
2023-01-29T00:01:16.683Z,80.44
2023-01-29T00:03:47.527Z,80.28
2023-01-29T00:06:18.416Z,80.14
2023-01-29T00:08:49.439Z,80.20
2023-01-29T00:11:20.843Z,80.27
2023-01-29T00:13:51.855Z,80.17
2023-01-29T00:16:22.723Z,80.15
2023-01-29T00:18:53.039Z,80.31
2023-01-29T00:21:25.098Z,80.27
2023-01-29T00:23:56.994Z,80.28
2023-01-29T00:26:28.140Z,80.38
2023-01-29T00:29:00.478Z,80.28
2023-01-29T00:31:31.294Z,80.38
2023-01-29T00:34:02.741Z,80.34
2023-01-29T00:36:33.494Z,80.43
2023-01-29T00:39:10.665Z,80.65
2023-01-29T00:41:58.830Z,80.50
2023-01-29T00:44:45.329Z,80.45
2023-01-29T00:47:38.233Z,80.50
2023-01-29T00:50:11.417Z,80.57
2023-01-29T00:52:42.324Z,80.45
2023-01-29T00:55:13.247Z,80.30
2023-01-29T00:57:43.980Z,80.45
2023-01-29T01:00:18.819Z,80.33
2023-01-29T01:03:07.772Z,80.42
2023-01-29T01:05:39.159Z,80.40
2023-01-29T01:08:24.594Z,80.36
2023-01-29T01:11:03.672Z,80.32
2023-01-29T01:13:35.970Z,80.38
2023-01-29T01:16:12.386Z,80.28
2023-01-29T01:18:43.205Z,80.33
2023-01-29T01:21:13.668Z,80.22
2023-01-29T01:23:44.092Z,80.31
2023-01-29T01:26:14.657Z,80.30
2023-01-29T01:28:45.391Z,80.20
2023-01-29T01:31:16.770Z,80.09
2023-01-29T01:33:47.291Z,79.85
2023-01-29T01:36:18.768Z,80.07
2023-01-29T01:38:49.764Z,80.14
2023-01-29T01:41:22.868Z,80.10
2023-01-29T01:43:57.638Z,80.05
2023-01-29T01:46:29.755Z,80.18
2023-01-29T01:49:03.174Z,80.20
2023-01-29T01:51:38.113Z,80.13
2023-01-29T01:54:13.328Z,80.21
2023-01-29T01:56:49.121Z,80.20
2023-01-29T01:59:20.565Z,80.26
2023-01-29T02:01:54.993Z,80.39
2023-01-29T02:04:45.331Z,80.54
2023-01-29T02:07:34.479Z,80.48
2023-01-29T02:10:10.571Z,80.29
2023-01-29T02:12:41.475Z,80.47
2023-01-29T02:15:13.619Z,80.40
2023-01-29T02:17:48.150Z,80.60
2023-01-29T02:20:25.224Z,80.76
2023-01-29T02:23:27.145Z,80.68
2023-01-29T02:26:17.072Z,80.77
2023-01-29T02:28:53.728Z,80.77
2023-01-29T02:31:30.934Z,80.73
2023-01-29T02:34:13.501Z,80.54
2023-01-29T02:36:51.621Z,80.65
2023-01-29T02:39:30.232Z,80.60
2023-01-29T02:42:11.612Z,80.54
2023-01-29T02:44:48.705Z,80.55
2023-01-29T02:47:23.918Z,80.50
2023-01-29T02:50:02.088Z,80.65
2023-01-29T02:52:39.263Z,80.73
2023-01-29T02:55:14.555Z,80.64
2023-01-29T02:57:48.199Z,80.44
2023-01-29T03:00:22.309Z,80.48
2023-01-29T03:02:58.178Z,80.56
2023-01-29T03:05:32.482Z,80.63
2023-01-29T03:08:07.944Z,80.70
2023-01-29T03:10:44.975Z,80.52
2023-01-29T03:13:22.086Z,80.59
2023-01-29T03:16:01.561Z,80.29
2023-01-29T03:18:41.152Z,80.30
2023-01-29T03:21:36.402Z,80.37
2023-01-29T03:24:28.160Z,80.48
2023-01-29T03:27:18.167Z,80.38
2023-01-29T03:30:09.621Z,80.35
2023-01-29T03:32:40.335Z,80.67
2023-01-29T03:35:14.757Z,80.87
2023-01-29T03:37:47.729Z,80.86
2023-01-29T03:40:19.153Z,80.84
2023-01-29T03:43:07.003Z,80.69
2023-01-29T03:45:44.128Z,80.66
2023-01-29T03:48:25.874Z,80.82
2023-01-29T03:51:02.927Z,80.70
2023-01-29T03:53:43.834Z,80.71
2023-01-29T03:56:27.368Z,80.71
2023-01-29T03:59:01.690Z,80.78
2023-01-29T04:01:38.725Z,80.83
2023-01-29T04:04:15.857Z,81.09
2023-01-29T04:06:49.897Z,80.95
2023-01-29T04:09:23.704Z,81.06
2023-01-29T04:12:00.552Z,81.18
2023-01-29T04:14:32.845Z,81.26
2023-01-29T04:17:09.196Z,81.15
2023-01-29T04:19:40.249Z,81.27
2023-01-29T04:22:16.581Z,81.25
2023-01-29T04:24:49.011Z,81.18
2023-01-29T04:27:34.770Z,81.38
2023-01-29T04:30:20.126Z,81.24
2023-01-29T04:33:04.433Z,81.22
2023-01-29T04:35:50.009Z,81.16
2023-01-29T04:38:34.306Z,80.95
2023-01-29T04:41:12.451Z,81.01
2023-01-29T04:43:49.022Z,81.02
2023-01-29T04:46:22.319Z,81.10
2023-01-29T04:49:05.013Z,81.15
2023-01-29T04:51:44.669Z,81.18
2023-01-29T04:54:21.619Z,81.17
2023-01-29T04:56:58.125Z,81.10
2023-01-29T04:59:35.415Z,81.12
2023-01-29T05:02:09.828Z,81.07
2023-01-29T05:04:43.156Z,80.91
2023-01-29T05:07:15.957Z,81.11
2023-01-29T05:09:48.247Z,81.33
2023-01-29T05:12:19.884Z,81.27
2023-01-29T05:14:52.764Z,81.27
2023-01-29T05:17:23.238Z,81.23
2023-01-29T05:19:53.853Z,81.27
2023-01-29T05:22:24.304Z,81.14
2023-01-29T05:24:54.885Z,80.98
2023-01-29T05:27:47.963Z,81.15
2023-01-29T05:30:19.117Z,81.13
2023-01-29T05:32:49.595Z,81.02
2023-01-29T05:35:20.051Z,81.15
2023-01-29T05:37:50.451Z,81.17
2023-01-29T05:40:20.883Z,81.20
2023-01-29T05:42:52.008Z,81.33
2023-01-29T05:45:22.914Z,81.28
2023-01-29T05:47:56.285Z,81.42
2023-01-29T05:50:28.060Z,81.28
2023-01-29T05:53:02.923Z,81.13
2023-01-29T05:55:33.231Z,80.96
2023-01-29T05:58:05.812Z,81.14
2023-01-29T06:00:36.590Z,81.16
2023-01-29T06:03:06.943Z,81.24
2023-01-29T06:05:40.561Z,81.32
2023-01-29T06:08:12.012Z,81.38
2023-01-29T06:10:42.360Z,81.32
2023-01-29T06:13:12.685Z,81.34
2023-01-29T06:15:43.342Z,81.49
2023-01-29T06:18:14.014Z,81.33
2023-01-29T06:20:44.563Z,81.26
2023-01-29T06:23:15.169Z,81.34
2023-01-29T06:25:45.589Z,81.29
2023-01-29T06:28:16.211Z,81.24
2023-01-29T06:30:46.557Z,81.13
2023-01-29T06:33:17.167Z,81.17
2023-01-29T06:35:47.560Z,81.00
2023-01-29T06:38:18.181Z,81.25
2023-01-29T06:40:49.413Z,81.09
2023-01-29T06:43:20.014Z,80.96
2023-01-29T06:45:52.708Z,81.17
2023-01-29T06:48:23.591Z,80.91
2023-01-29T06:50:55.196Z,80.91
2023-01-29T06:53:25.807Z,80.84
2023-01-29T06:55:56.593Z,80.78
2023-01-29T06:58:27.509Z,80.88
2023-01-29T07:01:05.612Z,80.81
2023-01-29T07:03:37.228Z,80.50
2023-01-29T07:06:08.341Z,80.55
2023-01-29T07:08:40.259Z,80.53
2023-01-29T07:11:10.919Z,80.48
2023-01-29T07:13:41.537Z,80.35
2023-01-29T07:16:12.580Z,80.36
2023-01-29T07:18:43.213Z,80.24
2023-01-29T07:21:13.863Z,80.11
2023-01-29T07:23:44.596Z,80.25
2023-01-29T07:26:15.315Z,80.17
2023-01-29T07:28:46.067Z,80.23
2023-01-29T07:31:16.870Z,80.35
2023-01-29T07:33:47.546Z,80.39
2023-01-29T07:36:18.417Z,80.33
2023-01-29T07:38:51.553Z,80.48
2023-01-29T07:41:22.515Z,80.32
2023-01-29T07:43:53.161Z,80.19
2023-01-29T07:46:23.484Z,80.15
2023-01-29T07:48:54.043Z,79.97
2023-01-29T07:51:24.424Z,79.96
2023-01-29T07:53:54.771Z,79.99
2023-01-29T07:56:25.560Z,80.01
2023-01-29T07:58:55.917Z,79.93
2023-01-29T08:01:26.930Z,79.85
2023-01-29T08:03:57.640Z,79.99
2023-01-29T08:06:28.035Z,79.65
2023-01-29T08:08:59.766Z,79.45
2023-01-29T08:11:30.116Z,79.84
2023-01-29T08:14:00.687Z,79.46
2023-01-29T08:16:31.451Z,79.26
2023-01-29T08:19:02.367Z,79.08
2023-01-29T08:21:32.727Z,79.27
2023-01-29T08:24:03.595Z,79.16
2023-01-29T08:26:33.994Z,79.25
2023-01-29T08:29:04.777Z,79.32
2023-01-29T08:31:35.194Z,79.11
2023-01-29T08:34:05.923Z,79.27
2023-01-29T08:36:36.514Z,78.94
2023-01-29T08:39:06.868Z,78.93
2023-01-29T08:41:37.229Z,79.04
2023-01-29T08:44:08.691Z,79.30
2023-01-29T08:46:40.739Z,79.04
2023-01-29T08:49:13.436Z,79.29
2023-01-29T08:51:44.068Z,79.51
2023-01-29T08:54:14.396Z,79.62
2023-01-29T08:56:45.266Z,79.76
2023-01-29T08:59:15.826Z,80.48
2023-01-29T09:01:46.572Z,80.62
2023-01-29T09:04:17.335Z,81.29
2023-01-29T09:06:47.911Z,81.33
2023-01-29T09:09:19.275Z,81.22
2023-01-29T09:11:49.652Z,81.10
2023-01-29T09:14:20.000Z,81.18
2023-01-29T09:16:50.651Z,81.18
2023-01-29T09:19:21.028Z,81.03
2023-01-29T09:21:51.658Z,81.03
2023-01-29T09:24:22.177Z,80.62
2023-01-29T09:26:52.503Z,80.47
2023-01-29T09:29:22.883Z,80.34
2023-01-29T09:31:53.561Z,80.66
2023-01-29T09:34:24.376Z,80.25
2023-01-29T09:36:55.953Z,80.11
2023-01-29T09:39:26.755Z,79.86
2023-01-29T09:42:03.212Z,79.99
2023-01-29T09:44:56.255Z,79.85
2023-01-29T09:47:29.095Z,79.79
2023-01-29T09:50:02.664Z,79.67
2023-01-29T09:52:36.868Z,79.61
2023-01-29T09:55:13.512Z,79.45
2023-01-29T09:57:48.187Z,79.53
2023-01-29T10:00:25.449Z,79.57
2023-01-29T10:03:15.317Z,79.33
2023-01-29T10:06:05.648Z,79.68
2023-01-29T10:09:21.036Z,79.36
2023-01-29T10:12:06.535Z,79.22
2023-01-29T10:14:49.131Z,78.99
2023-01-29T10:17:37.807Z,78.88
2023-01-29T10:20:33.860Z,78.96
2023-01-29T10:23:19.724Z,78.96
2023-01-29T10:25:50.941Z,78.93
2023-01-29T10:28:26.690Z,78.50
2023-01-29T10:31:05.392Z,78.57
2023-01-29T10:33:49.492Z,78.62
2023-01-29T10:36:36.886Z,78.84
2023-01-29T10:39:13.380Z,79.08
2023-01-29T10:42:06.550Z,78.81
2023-01-29T10:44:47.701Z,78.71
2023-01-29T10:47:43.233Z,78.65
2023-01-29T10:50:27.277Z,78.79
2023-01-29T10:53:18.058Z,78.88
2023-01-29T10:55:59.870Z,78.54
2023-01-29T10:58:38.040Z,78.43
2023-01-29T11:01:08.805Z,78.23
2023-01-29T11:03:39.546Z,78.45
2023-01-29T11:06:18.880Z,78.25
2023-01-29T11:08:56.085Z,78.10
2023-01-29T11:11:34.253Z,77.70
2023-01-29T11:14:08.901Z,78.05
2023-01-29T11:16:45.573Z,77.79
2023-01-29T11:19:17.112Z,77.82
2023-01-29T11:22:01.049Z,77.86
2023-01-29T11:24:31.423Z,77.69
2023-01-29T11:27:04.336Z,77.79
2023-01-29T11:29:41.173Z,77.74
2023-01-29T11:32:16.491Z,77.87
2023-01-29T11:35:05.051Z,77.66
2023-01-29T11:37:38.147Z,77.50
2023-01-29T11:40:43.428Z,77.24
2023-01-29T11:43:22.151Z,77.14
2023-01-29T11:45:54.956Z,76.93
2023-01-29T11:48:35.209Z,76.47
2023-01-29T11:51:06.626Z,76.55
2023-01-29T11:53:42.362Z,76.80
2023-01-29T11:56:28.137Z,76.75
2023-01-29T11:59:04.343Z,76.34
2023-01-29T12:01:37.970Z,76.57
2023-01-29T12:04:20.207Z,76.32
2023-01-29T12:06:54.000Z,76.25
2023-01-29T12:09:27.344Z,75.84
2023-01-29T12:12:17.593Z,75.80
2023-01-29T12:14:47.955Z,75.71
2023-01-29T12:17:26.229Z,75.78
2023-01-29T12:20:04.864Z,75.82
2023-01-29T12:22:45.782Z,75.60
2023-01-29T12:25:23.480Z,75.28
2023-01-29T12:28:01.732Z,75.34
2023-01-29T12:30:37.701Z,75.63
2023-01-29T12:33:15.303Z,75.45
2023-01-29T12:35:49.128Z,75.65
2023-01-29T12:38:22.367Z,75.37
2023-01-29T12:40:58.040Z,74.98
2023-01-29T12:43:34.379Z,75.05
2023-01-29T12:46:08.027Z,75.05
2023-01-29T12:48:43.549Z,74.85
2023-01-29T12:51:18.701Z,74.98
2023-01-29T12:53:57.116Z,74.70
2023-01-29T12:56:32.457Z,74.81
2023-01-29T12:59:06.166Z,74.79
2023-01-29T13:01:42.905Z,74.80
2023-01-29T13:04:18.833Z,75.14
2023-01-29T13:06:54.635Z,74.74
2023-01-29T13:09:29.479Z,74.53
2023-01-29T13:12:04.393Z,74.67
2023-01-29T13:14:46.929Z,74.82
2023-01-29T13:17:24.761Z,74.82
2023-01-29T13:19:59.021Z,74.53
2023-01-29T13:22:33.117Z,74.96
2023-01-29T13:25:05.822Z,75.09
2023-01-29T13:27:37.968Z,75.13
2023-01-29T13:30:24.767Z,75.01
2023-01-29T13:33:09.192Z,74.78
2023-01-29T13:35:46.193Z,74.70
2023-01-29T13:38:28.151Z,74.54
2023-01-29T13:41:02.279Z,74.60
2023-01-29T13:43:38.418Z,74.64
2023-01-29T13:46:14.970Z,74.64
2023-01-29T13:48:49.292Z,74.41
2023-01-29T13:51:31.914Z,74.36
2023-01-29T13:54:06.120Z,74.03
2023-01-29T13:57:00.485Z,74.34
2023-01-29T13:59:52.995Z,74.20
2023-01-29T14:02:26.232Z,74.13
2023-01-29T14:05:35.194Z,74.37
2023-01-29T14:08:07.016Z,73.76
2023-01-29T14:10:38.662Z,73.95
2023-01-29T14:13:35.220Z,73.81
2023-01-29T14:16:35.350Z,74.42
2023-01-29T14:19:07.693Z,74.28
2023-01-29T14:21:39.590Z,74.26
2023-01-29T14:24:20.792Z,74.29
2023-01-29T14:26:58.448Z,74.53
2023-01-29T14:29:34.940Z,74.25
2023-01-29T14:32:16.312Z,73.97
2023-01-29T14:34:49.385Z,74.35
2023-01-29T14:37:30.271Z,74.44
2023-01-29T14:40:28.338Z,74.26
2023-01-29T14:43:05.451Z,74.24
2023-01-29T14:45:37.481Z,74.21
2023-01-29T14:48:39.135Z,74.06
2023-01-29T14:51:14.986Z,74.34
2023-01-29T14:54:00.240Z,74.54
2023-01-29T14:56:37.180Z,74.07
2023-01-29T14:59:18.816Z,74.34
2023-01-29T15:01:55.738Z,74.42
2023-01-29T15:04:29.792Z,74.64
2023-01-29T15:07:06.800Z,75.12
2023-01-29T15:09:43.682Z,75.03
2023-01-29T15:12:24.645Z,75.09
2023-01-29T15:15:08.402Z,75.08
2023-01-29T15:17:50.400Z,75.39
2023-01-29T15:20:32.152Z,75.70
2023-01-29T15:23:04.171Z,75.74
2023-01-29T15:25:38.557Z,76.03
2023-01-29T15:28:12.985Z,76.56
2023-01-29T15:30:45.103Z,76.28
2023-01-29T15:33:16.691Z,76.86
2023-01-29T15:35:49.965Z,77.07
2023-01-29T15:38:26.645Z,77.20
2023-01-29T15:40:58.635Z,77.93
2023-01-29T15:43:31.171Z,77.83
2023-01-29T15:46:03.700Z,78.00
2023-01-29T15:48:38.325Z,78.02
2023-01-29T15:51:14.300Z,78.66
2023-01-29T15:53:49.301Z,79.18
2023-01-29T15:56:22.352Z,79.47
2023-01-29T15:58:54.157Z,80.01
2023-01-29T16:01:26.690Z,80.50
2023-01-29T16:03:59.467Z,81.33
2023-01-29T16:06:31.789Z,81.74
2023-01-29T16:09:02.696Z,81.96
2023-01-29T16:11:34.200Z,82.17
2023-01-29T16:14:06.559Z,82.66
2023-01-29T16:16:37.972Z,82.60
2023-01-29T16:19:21.475Z,82.92
2023-01-29T16:21:58.089Z,83.20
2023-01-29T16:24:30.989Z,83.52
2023-01-29T16:27:08.267Z,83.74
2023-01-29T16:29:39.678Z,84.03
2023-01-29T16:32:13.867Z,84.00
2023-01-29T16:34:47.961Z,84.54
2023-01-29T16:37:24.629Z,84.54
2023-01-29T16:39:55.081Z,85.12
2023-01-29T16:42:31.306Z,85.05
2023-01-29T16:45:05.414Z,85.17
2023-01-29T16:47:38.142Z,85.30
2023-01-29T16:50:28.441Z,85.44
2023-01-29T16:53:01.921Z,85.66
2023-01-29T16:55:40.606Z,85.85
2023-01-29T16:58:16.897Z,86.05
2023-01-29T17:00:50.623Z,85.36
2023-01-29T17:03:22.344Z,85.95
2023-01-29T17:05:52.978Z,85.79
2023-01-29T17:08:27.756Z,85.89
2023-01-29T17:10:58.535Z,85.75
2023-01-29T17:13:36.975Z,85.70
2023-01-29T17:16:21.433Z,85.35
2023-01-29T17:18:52.293Z,85.39
2023-01-29T17:21:22.722Z,85.21
2023-01-29T17:23:54.008Z,85.12
2023-01-29T17:26:25.703Z,85.14
2023-01-29T17:28:56.292Z,84.85
2023-01-29T17:31:27.007Z,85.05
2023-01-29T17:33:58.417Z,85.06
2023-01-29T17:36:29.060Z,84.70
2023-01-29T17:39:01.203Z,84.77
2023-01-29T17:41:32.929Z,84.50
2023-01-29T17:44:03.481Z,84.48
2023-01-29T17:46:34.137Z,84.42
2023-01-29T17:49:07.408Z,84.34
2023-01-29T17:51:38.467Z,84.06
2023-01-29T17:54:08.836Z,84.51
2023-01-29T17:56:39.467Z,84.19
2023-01-29T17:59:16.027Z,84.23
2023-01-29T18:01:47.419Z,84.20
2023-01-29T18:04:18.177Z,84.26
2023-01-29T18:06:51.434Z,84.27
2023-01-29T18:09:23.076Z,84.06
2023-01-29T18:11:54.476Z,84.04
2023-01-29T18:14:24.845Z,84.12
2023-01-29T18:16:57.262Z,83.92
2023-01-29T18:19:30.992Z,83.74
2023-01-29T18:22:01.581Z,84.06
2023-01-29T18:24:32.303Z,83.93
2023-01-29T18:27:02.700Z,84.00
2023-01-29T18:29:33.486Z,83.94
2023-01-29T18:32:03.994Z,83.94
2023-01-29T18:34:34.477Z,83.84
2023-01-29T18:37:05.172Z,83.87
2023-01-29T18:39:35.931Z,83.76
2023-01-29T18:42:07.040Z,83.74
2023-01-29T18:44:37.417Z,83.64
2023-01-29T18:47:07.841Z,83.45
2023-01-29T18:49:39.245Z,83.40
2023-01-29T18:52:10.098Z,83.69
2023-01-29T18:54:41.094Z,83.52
2023-01-29T18:57:14.918Z,83.56
2023-01-29T19:00:02.823Z,83.47
2023-01-29T19:02:33.674Z,83.60
2023-01-29T19:05:04.152Z,83.37
2023-01-29T19:07:34.880Z,83.46
2023-01-29T19:10:09.236Z,83.30
2023-01-29T19:12:42.163Z,83.23
2023-01-29T19:15:14.081Z,83.44
2023-01-29T19:17:44.558Z,83.17
2023-01-29T19:20:16.022Z,83.01
2023-01-29T19:22:46.421Z,83.27
2023-01-29T19:25:19.477Z,83.48
2023-01-29T19:27:50.153Z,83.90
2023-01-29T19:30:20.704Z,84.16
2023-01-29T19:32:51.125Z,84.12
2023-01-29T19:35:21.763Z,84.03
2023-01-29T19:37:52.505Z,84.23
2023-01-29T19:40:24.253Z,84.40
2023-01-29T19:42:58.170Z,84.20
2023-01-29T19:45:43.144Z,84.63
2023-01-29T19:48:21.411Z,84.78
2023-01-29T19:50:56.203Z,84.89
2023-01-29T19:53:28.518Z,84.92
2023-01-29T19:56:03.506Z,85.09
2023-01-29T19:58:34.979Z,85.16
2023-01-29T20:01:08.077Z,85.31
2023-01-29T20:03:38.482Z,85.27
2023-01-29T20:06:09.618Z,85.13
2023-01-29T20:08:40.485Z,85.30
2023-01-29T20:11:12.933Z,84.95
2023-01-29T20:13:43.276Z,85.07
2023-01-29T20:16:13.680Z,85.01
2023-01-29T20:18:44.071Z,84.73
2023-01-29T20:21:16.403Z,84.88
2023-01-29T20:23:46.853Z,84.93
2023-01-29T20:26:18.720Z,84.68
2023-01-29T20:28:49.404Z,84.63
2023-01-29T20:31:20.529Z,84.65
2023-01-29T20:33:51.258Z,84.63
2023-01-29T20:36:21.987Z,84.56
2023-01-29T20:38:52.343Z,84.44
2023-01-29T20:41:22.943Z,84.20
2023-01-29T20:43:53.278Z,84.47
2023-01-29T20:46:23.607Z,84.43
2023-01-29T20:48:55.661Z,84.20
2023-01-29T20:51:26.515Z,84.17
2023-01-29T20:53:57.297Z,83.97
2023-01-29T20:56:36.057Z,83.96
2023-01-29T20:59:07.883Z,84.00
2023-01-29T21:01:38.994Z,83.88
2023-01-29T21:04:09.456Z,83.64
2023-01-29T21:06:39.895Z,83.68
2023-01-29T21:09:10.512Z,83.73
2023-01-29T21:11:40.865Z,83.87
2023-01-29T21:14:11.640Z,83.50
2023-01-29T21:16:42.486Z,83.31
2023-01-29T21:19:15.736Z,83.43
2023-01-29T21:21:46.411Z,83.10
2023-01-29T21:24:18.816Z,83.23
2023-01-29T21:26:49.878Z,83.27
2023-01-29T21:29:20.438Z,83.48
2023-01-29T21:31:51.435Z,83.29
2023-01-29T21:34:22.089Z,83.15
2023-01-29T21:36:52.678Z,83.19
2023-01-29T21:39:24.699Z,82.99
2023-01-29T21:42:12.681Z,83.02
2023-01-29T21:44:43.054Z,83.01
2023-01-29T21:47:13.429Z,82.87
2023-01-29T21:49:45.047Z,82.90
2023-01-29T21:52:16.466Z,82.72
2023-01-29T21:54:48.872Z,82.95
2023-01-29T21:57:19.469Z,82.88
2023-01-29T21:59:53.096Z,82.74
2023-01-29T22:02:26.604Z,82.75
2023-01-29T22:05:16.443Z,82.85
2023-01-29T22:07:49.142Z,82.73
2023-01-29T22:10:21.024Z,82.91
2023-01-29T22:12:51.862Z,82.80
2023-01-29T22:15:23.856Z,82.77
2023-01-29T22:17:54.537Z,82.76
2023-01-29T22:20:30.133Z,82.59
2023-01-29T22:23:01.438Z,82.62
2023-01-29T22:25:32.154Z,82.42
2023-01-29T22:28:02.679Z,82.70
2023-01-29T22:30:33.035Z,82.65
2023-01-29T22:33:03.474Z,82.38
2023-01-29T22:35:33.943Z,82.47
2023-01-29T22:38:04.334Z,82.64
2023-01-29T22:40:34.788Z,82.45
2023-01-29T22:43:05.238Z,82.50
2023-01-29T22:45:39.774Z,82.73
2023-01-29T22:48:11.343Z,82.70
2023-01-29T22:50:42.594Z,82.80
2023-01-29T22:53:13.009Z,82.68
2023-01-29T22:55:43.720Z,82.83
2023-01-29T22:58:14.790Z,82.73
2023-01-29T23:00:45.371Z,82.80
2023-01-29T23:03:16.109Z,82.72
2023-01-29T23:05:46.763Z,82.77
2023-01-29T23:08:17.140Z,82.60
2023-01-29T23:10:47.701Z,82.81
2023-01-29T23:13:18.264Z,82.71
2023-01-29T23:15:58.006Z,82.66
2023-01-29T23:18:28.631Z,82.88
2023-01-29T23:21:00.875Z,82.64
2023-01-29T23:23:32.881Z,82.86
2023-01-29T23:26:22.423Z,83.15
2023-01-29T23:28:53.090Z,83.09
2023-01-29T23:31:23.523Z,82.96
2023-01-29T23:33:54.503Z,83.07
2023-01-29T23:36:25.200Z,83.13
2023-01-29T23:38:55.529Z,83.37
2023-01-29T23:41:25.842Z,83.30
2023-01-29T23:43:56.137Z,83.54
2023-01-29T23:46:26.593Z,83.68
2023-01-29T23:48:56.937Z,83.68
2023-01-29T23:51:27.345Z,83.96
2023-01-29T23:53:58.280Z,83.97
2023-01-29T23:56:28.670Z,83.92
2023-01-29T23:58:59.631Z,84.14
